Data for 05/13/2014

Time Sea-Level Adjusted Pressure Absolute Pressure Temperature Relative Humidity Dew Point   
(mb) (inHg) (mb) (inHg) (C) (F) (%) (C) (F)
00:05 1030 30.42 860 25.4 0.8 33.5 70 -4.1 24.6
00:10 1030 30.42 860 25.4 0.8 33.5 70 -4.1 24.6
00:15 1030 30.42 860 25.4 0.7 33.2 70 -4.1 24.6
00:20 1030 30.42 860 25.4 0.6 33 71 -4.1 24.6
00:25 1030 30.42 859 25.37 0.5 32.9 71 -4.1 24.5
00:30 1030 30.42 859 25.37 0.4 32.8 71 -4.2 24.4
00:35 1030 30.42 859 25.37 0.4 32.6 72 -4.2 24.5
00:40 1030 30.42 859 25.37 0.4 32.7 72 -4.1 24.6
00:45 1030 30.42 859 25.37 0.3 32.5 72 -4.2 24.4
00:50 1030 30.42 859 25.37 0.3 32.6 69 -4.6 23.7
00:55 1030 30.42 859 25.37 0.5 32.9 71 -4.2 24.4
01:00 1030 30.42 859 25.37 0.4 32.7 71 -4.3 24.3
01:05 1030 30.42 859 25.37 0.6 33 69 -4.5 23.9
01:10 1030 30.42 859 25.37 0.6 33.2 69 -4.4 24.1
01:15 1030 30.42 859 25.37 0.7 33.3 70 -4.2 24.4
01:20 1030 30.42 859 25.37 0.5 32.9 71 -4.2 24.5
01:25 1030 30.42 859 25.37 0.2 32.3 72 -4.3 24.2
01:30 1030 30.42 859 25.37 0.2 32.3 72 -4.3 24.2
01:35 1030 30.42 859 25.37 0.2 32.4 70 -4.6 23.8
01:40 1030 30.42 859 25.37 0.2 32.4 71 -4.4 24
01:45 1030 30.42 859 25.37 0.2 32.3 71 -4.5 23.8
01:50 1030 30.42 859 25.37 0 32 71 -4.6 23.7
01:55 1030 30.42 859 25.37 -0 31.9 71 -4.7 23.6
02:00 1030 30.42 859 25.37 -0.1 31.8 71 -4.8 23.4
02:05 1030 30.42 859 25.37 -0.1 31.9 70 -4.9 23.2
02:10 1030 30.42 859 25.37 -0 31.9 70 -4.9 23.2
02:15 1030 30.42 859 25.37 -0.1 31.8 72 -4.6 23.7
02:20 1030 30.42 859 25.37 -0.3 31.5 72 -4.7 23.5
02:25 1030 30.42 859 25.37 -0.3 31.5 73 -4.6 23.8
02:30 1030 30.42 859 25.37 -0.4 31.2 73 -4.6 23.7
02:35 1030 30.42 859 25.37 -0.5 31 73 -4.8 23.4
02:40 1030 30.42 859 25.37 -0.5 31.2 73 -4.8 23.4
02:45 1030 30.42 860 25.4 -0.5 31.1 73 -4.8 23.3
02:50 1030 30.42 860 25.4 -0.4 31.2 72 -4.9 23.2
02:55 1030 30.42 860 25.4 -0.4 31.3 71 -5 23
03:00 1030 30.42 860 25.4 -0.4 31.3 71 -5.1 22.9
03:05 1030 30.42 860 25.4 -0.3 31.5 70 -5.2 22.7
03:10 1031 30.45 860 25.4 0 32 68 -5.1 22.8
03:15 1031 30.45 860 25.4 -0 31.9 68 -5.2 22.7
03:20 1031 30.45 860 25.4 0 32.1 68 -5.1 22.9
03:25 1031 30.45 860 25.4 -0.2 31.6 68 -5.4 22.2
03:30 1031 30.45 860 25.4 0.5 32.9 63 -5.7 21.8
03:35 1031 30.45 860 25.4 0.9 33.6 63 -5.3 22.4
03:40 1031 30.45 860 25.4 0.8 33.4 64 -5.3 22.4
03:45 1031 30.45 860 25.4 0.6 33.1 65 -5.3 22.5
03:50 1031 30.45 860 25.4 0.3 32.6 66 -5.3 22.5
03:55 1031 30.45 860 25.4 0.1 32.2 66 -5.4 22.3
04:00 1031 30.45 860 25.4 0.1 32.2 66 -5.5 22
04:05 1031 30.45 860 25.4 0.2 32.4 65 -5.6 21.9
04:10 1031 30.45 860 25.4 0.2 32.4 65 -5.5 22
04:15 1031 30.45 860 25.4 0.1 32.2 66 -5.5 22.1
04:20 1031 30.45 860 25.4 -0.1 31.9 67 -5.4 22.2
04:25 1031 30.45 860 25.4 -0.3 31.5 69 -5.3 22.5
04:30 1031 30.45 860 25.4 -0.6 30.9 68 -5.7 21.7
04:35 1031 30.45 860 25.4 -0.5 31.1 70 -5.4 22.3
04:40 1031 30.45 860 25.4 -0.8 30.6 70 -5.5 22.1
04:45 1031 30.45 860 25.4 -0.8 30.6 71 -5.4 22.2
04:50 1031 30.45 860 25.4 -0.7 30.7 70 -5.6 22
04:55 1031 30.45 860 25.4 -0.6 30.9 70 -5.5 22.1
05:00 1031 30.45 860 25.4 -0.7 30.7 70 -5.5 22.1
05:05 1031 30.45 860 25.4 -0.9 30.3 72 -5.3 22.5
05:10 1031 30.45 860 25.4 -1 30.2 71 -5.6 22
05:15 1031 30.45 860 25.4 -1 30.2 71 -5.6 22
05:20 1031 30.45 860 25.4 -0.9 30.3 71 -5.6 22
05:25 1031 30.45 860 25.4 -0.6 30.9 69 -5.6 21.9
05:30 1031 30.45 860 25.4 -0.5 31.2 68 -5.7 21.8
05:35 1031 30.45 860 25.4 -0.3 31.4 68 -5.6 22
05:40 1031 30.45 860 25.4 -0.3 31.5 68 -5.6 22
05:45 1031 30.45 860 25.4 -0.2 31.7 67 -5.7 21.8
05:50 1031 30.45 860 25.4 0.1 32.1 66 -5.6 22
05:55 1031 30.45 860 25.4 0.2 32.3 66 -5.5 22.1
06:00 1031 30.45 860 25.4 0.5 32.8 65 -5.4 22.3
06:05 1031 30.45 860 25.4 0.7 33.3 64 -5.3 22.4
06:10 1031 30.45 860 25.4 0.9 33.6 64 -5.2 22.7
06:15 1031 30.45 860 25.4 1.3 34.4 61 -5.4 22.2
06:20 1031 30.45 860 25.4 1.7 35.1 60 -5.3 22.5
06:25 1031 30.45 860 25.4 2.2 35.9 58 -5.3 22.5
06:30 1031 30.45 860 25.4 2.5 36.5 58 -5 23.1
06:35 1031 30.45 860 25.4 2.5 36.6 58 -5 23
06:40 1031 30.45 860 25.4 3 37.4 55 -5.1 22.8
06:45 1031 30.45 860 25.4 3.6 38.4 53 -5.1 22.8
06:50 1031 30.45 860 25.4 3.9 39.1 52 -5 23
06:55 1031 30.45 860 25.4 4.2 39.5 52 -4.9 23.2
07:00 1031 30.45 860 25.4 4.5 40.1 51 -4.8 23.4
07:05 1031 30.45 860 25.4 4.9 40.8 46 -5.7 21.7
07:10 1031 30.45 861 25.43 5.3 41.5 48 -4.9 23.2
07:15 1031 30.45 861 25.43 5.1 41.2 48 -4.9 23.1
07:20 1031 30.45 861 25.43 5.2 41.3 44 -6.2 20.8
07:25 1031 30.45 861 25.43 5.8 42.5 44 -5.4 22.2
07:30 1031 30.45 861 25.43 6.3 43.3 43 -5.4 22.3
07:35 1031 30.45 861 25.43 6.7 44 41 -5.5 22
07:40 1031 30.45 861 25.43 7.2 45 39 -5.8 21.6
07:45 1031 30.45 861 25.43 7.1 44.9 39 -5.9 21.4
07:50 1031 30.45 861 25.43 7.7 45.8 37 -6 21.1
07:55 1031 30.45 861 25.43 8 46.4 35 -6.4 20.5
08:00 1031 30.45 861 25.43 7.6 45.8 36 -6.3 20.6
08:05 1031 30.45 861 25.43 8 46.3 34 -6.9 19.7
08:10 1031 30.45 861 25.43 8.4 47.1 36 -6 21.2
08:15 1031 30.45 861 25.43 8.7 47.6 34 -6.3 20.6
08:20 1032 30.47 861 25.43 8.6 47.5 35 -5.9 21.3
08:25 1032 30.47 861 25.43 8.9 48 34 -6.2 20.8
08:30 1031 30.45 861 25.43 9 48.2 34 -6.1 21
08:35 1032 30.47 861 25.43 7.8 46 37 -5.9 21.5
08:40 1031 30.45 861 25.43 8.5 47.4 33 -6.8 19.8
08:45 1031 30.45 861 25.43 9.1 48.4 32 -6.6 20.2
08:50 1031 30.45 861 25.43 9.4 48.8 34 -5.9 21.4
08:55 1031 30.45 861 25.43 9.6 49.2 33 -5.7 21.7
09:00 1031 30.45 861 25.43 9.4 48.8 35 -5.4 22.3
09:05 1031 30.45 860 25.4 9.6 49.3 32 -6.2 20.8
09:10 1031 30.45 861 25.43 9.8 49.7 33 -5.7 21.7
09:15 1031 30.45 860 25.4 9.4 49 33 -5.9 21.4
09:20 1031 30.45 861 25.43 10.3 50.5 32 -5.7 21.7
09:25 1031 30.45 860 25.4 10.6 51 32 -5.4 22.2
09:30 1031 30.45 860 25.4 11.3 52.3 28 -6.7 19.9
09:35 1031 30.45 860 25.4 11.4 52.6 29 -6 21.1
09:40 1031 30.45 860 25.4 10.7 51.3 31 -5.8 21.5
09:45 1031 30.45 860 25.4 10.7 51.3 30 -6.2 20.9
09:50 1031 30.45 860 25.4 10.3 50.6 31 -6.1 21.1
09:55 1031 30.45 860 25.4 10.8 51.5 31 -5.5 22.1
10:00 1031 30.45 860 25.4 10.7 51.3 30 -6 21.2
10:05 1031 30.45 860 25.4 11.5 52.8 30 -5.6 21.9
10:10 1031 30.45 860 25.4 11.1 52 29 -6.1 21.1
10:15 1031 30.45 860 25.4 11.4 52.6 29 -5.7 21.7
10:20 1031 30.45 860 25.4 11.9 53.5 28 -5.7 21.7
10:25 1031 30.45 860 25.4 11.7 53.1 27 -6.6 20
10:30 1031 30.45 860 25.4 12.2 53.9 27 -6.3 20.6
10:35 1031 30.45 860 25.4 12.1 53.8 28 -5.7 21.8
10:40 1031 30.45 860 25.4 11.5 52.7 28 -6.6 20.2
10:45 1031 30.45 860 25.4 12.1 53.8 28 -5.9 21.5
10:50 1031 30.45 860 25.4 11.4 52.4 28 -6.7 19.9
10:55 1031 30.45 860 25.4 12.2 54 26 -6.7 19.9
11:00 1031 30.45 860 25.4 12.8 55 25 -6.5 20.2
11:05 1031 30.45 860 25.4 12.8 55 25 -6.6 20
11:10 1031 30.45 860 25.4 12.8 55 24 -7.4 18.7
11:15 1031 30.45 860 25.4 13.6 56.5 23 -6.9 19.5
11:20 1031 30.45 860 25.4 13.5 56.4 25 -6.3 20.7
11:25 1031 30.45 860 25.4 13.7 56.7 25 -5.8 21.5
11:30 1031 30.45 860 25.4 13.4 56.1 26 -5.9 21.4
11:35 1031 30.45 860 25.4 13.5 56.3 24 -6.7 19.9
11:40 1031 30.45 860 25.4 14.1 57.3 23 -6.9 19.5
11:45 1031 30.45 860 25.4 14 57.2 23 -6.7 19.9
11:50 1031 30.45 860 25.4 14 57.2 24 -6 21.1
11:55 1031 30.45 860 25.4 14 57.2 23 -6.7 19.9
12:00 1031 30.45 860 25.4 14.3 57.7 24 -6.2 20.9
12:05 1031 30.45 860 25.4 14.4 57.9 23 -6.6 20.1
12:10 1031 30.45 860 25.4 14.4 57.8 21 -7.4 18.7
12:15 1031 30.45 860 25.4 14.1 57.3 20 -8.3 17.1
12:20 1031 30.45 860 25.4 14.4 57.8 21 -7.6 18.3
12:25 1031 30.45 860 25.4 14 57.1 22 -7.5 18.6
12:30 1031 30.45 860 25.4 14 57.1 21 -8.2 17.3
12:35 1031 30.45 860 25.4 14.2 57.6 21 -7.9 17.7
12:40 1031 30.45 860 25.4 13.6 56.4 21 -8.4 16.9
12:45 1031 30.45 860 25.4 13.6 56.5 21 -8.4 16.9
12:50 1030 30.42 860 25.4 14.4 58 20 -7.9 17.8
12:55 1030 30.42 860 25.4 14.7 58.4 20 -8.1 17.3
13:00 1030 30.42 860 25.4 13.8 56.8 22 -7.6 18.3
13:05 1030 30.42 859 25.37 14.6 58.2 19 -8.6 16.5
13:10 1030 30.42 859 25.37 14.7 58.5 20 -7.7 18.2
13:15 1030 30.42 859 25.37 14.7 58.5 19 -8.5 16.7
13:20 1030 30.42 859 25.37 14.4 57.9 20 -8.4 16.9
13:25 1030 30.42 859 25.37 14.5 58 21 -7.4 18.7
13:30 1030 30.42 859 25.37 15 59 19 -8.3 17
13:35 1030 30.42 859 25.37 15 59 20 -7.8 18
13:40 1030 30.42 859 25.37 14.5 58.2 19 -8.4 16.8
13:45 1030 30.42 859 25.37 15.3 59.6 20 -7.7 18.2
13:50 1030 30.42 859 25.37 14.7 58.4 20 -8 17.5
13:55 1030 30.42 859 25.37 14.9 58.9 20 -7.7 18.1
14:00 1030 30.42 859 25.37 14.6 58.2 20 -8.1 17.5
14:05 1030 30.42 859 25.37 14.9 58.7 20 -7.6 18.4
14:10 1030 30.42 859 25.37 15.1 59.2 19 -8.1 17.4
14:15 1030 30.42 859 25.37 15.9 60.5 19 -7.8 17.9
14:20 1030 30.42 859 25.37 15.9 60.7 18 -8 17.6
14:25 1030 30.42 859 25.37 15.6 60.1 19 -8.2 17.3
14:30 1030 30.42 859 25.37 14.6 58.2 20 -7.9 17.8
14:35 1030 30.42 859 25.37 14.3 57.7 21 -7.8 17.9
14:40 1030 30.42 859 25.37 15.1 59.2 19 -8.3 17.1
14:45 1030 30.42 859 25.37 15.8 60.4 17 -9.2 15.4
14:50 1029 30.39 859 25.37 15.5 59.8 18 -9 15.8
14:55 1029 30.39 859 25.37 15.7 60.3 16 -10.3 13.5
15:00 1029 30.39 859 25.37 16.1 61 17 -9.3 15.3
15:05 1029 30.39 858 25.34 15.9 60.6 16 -9.8 14.4
15:10 1029 30.39 858 25.34 16.1 61.1 15 -10.8 12.6
15:15 1029 30.39 858 25.34 15.9 60.6 14 -11.2 11.8
15:20 1029 30.39 858 25.34 16 60.8 15 -10.9 12.4
15:25 1029 30.39 858 25.34 15.6 60 17 -9.7 14.5
15:30 1029 30.39 858 25.34 15 59 16 -10.9 12.3
15:35 1029 30.39 858 25.34 15.1 59.2 16 -10.2 13.7
15:40 1029 30.39 858 25.34 15.1 59.1 17 -9.7 14.6
15:45 1029 30.39 858 25.34 15 59 17 -9.9 14.3
15:50 1029 30.39 858 25.34 15.3 59.5 17 -9.7 14.5
15:55 1029 30.39 858 25.34 15.5 59.9 15 -10.6 12.9
16:00 1029 30.39 858 25.34 14.7 58.4 17 -9.9 14.2
16:05 1029 30.39 858 25.34 14.5 58.1 17 -10.1 13.9
16:10 1029 30.39 858 25.34 15.3 59.5 16 -10.7 12.8
16:15 1029 30.39 858 25.34 15.8 60.4 17 -9.4 15.1
16:20 1029 30.39 858 25.34 14.8 58.6 19 -8.9 16
16:25 1029 30.39 858 25.34 15 59 18 -9.2 15.4
16:30 1029 30.39 858 25.34 15.6 60.1 18 -8.8 16.1
16:35 1029 30.39 858 25.34 15.2 59.4 18 -9.2 15.5
16:40 1029 30.39 858 25.34 15.6 60.1 17 -9.5 14.8
16:45 1029 30.39 858 25.34 15 59 18 -9.3 15.3
16:50 1029 30.39 858 25.34 14.4 58 18 -9.4 15
16:55 1029 30.39 858 25.34 14.4 57.9 18 -9.8 14.4
17:00 1029 30.39 858 25.34 14.1 57.3 19 -9.5 15
17:05 1029 30.39 858 25.34 14.7 58.5 18 -9.4 15
17:10 1028 30.36 858 25.34 14.9 58.9 18 -9.2 15.4
17:15 1028 30.36 858 25.34 14.6 58.2 18 -9.7 14.6
17:20 1028 30.36 858 25.34 15.3 59.5 18 -8.7 16.3
17:25 1028 30.36 858 25.34 15.4 59.8 18 -8.9 15.9
17:30 1028 30.36 857 25.31 15.2 59.3 18 -9.1 15.6
17:35 1028 30.36 857 25.31 15 59 18 -9.4 15
17:40 1028 30.36 857 25.31 14.5 58 19 -9.1 15.6
17:45 1028 30.36 857 25.31 14.4 57.9 17 -10 13.9
17:50 1028 30.36 857 25.31 14.4 57.9 18 -9.6 14.6
17:55 1028 30.36 857 25.31 14.4 58 19 -8.9 16
18:00 1028 30.36 857 25.31 15 59 18 -9.4 15
18:05 1028 30.36 857 25.31 15 59.1 18 -9.2 15.4
18:10 1028 30.36 857 25.31 14.6 58.3 18 -9.5 14.9
18:15 1028 30.36 857 25.31 14.4 57.9 18 -9.5 14.9
18:20 1028 30.36 857 25.31 14 57.2 18 -9.6 14.7
18:25 1028 30.36 857 25.31 14.2 57.5 19 -8.9 16.1
18:30 1028 30.36 857 25.31 14.2 57.6 19 -9.4 15.1
18:35 1028 30.36 857 25.31 13.9 57 19 -9.1 15.6
18:40 1028 30.36 857 25.31 14.1 57.3 19 -9.1 15.5
18:45 1028 30.36 857 25.31 14.2 57.6 19 -9.2 15.5
18:50 1028 30.36 857 25.31 14.1 57.3 19 -9 15.7
18:55 1028 30.36 857 25.31 14 57.3 20 -8.9 16
19:00 1028 30.36 857 25.31 13.9 57.1 20 -8.5 16.6
19:05 1028 30.36 857 25.31 13.7 56.6 20 -9 15.9
19:10 1028 30.36 857 25.31 13.2 55.8 20 -9.3 15.3
19:15 1028 30.36 857 25.31 13.3 55.9 20 -9.1 15.7
19:20 1028 30.36 857 25.31 13 55.5 20 -9.5 15
19:25 1028 30.36 857 25.31 12.9 55.3 21 -8.9 15.9
19:30 1028 30.36 857 25.31 12.8 55.1 22 -8.1 17.4
19:35 1028 30.36 857 25.31 12.8 55.1 21 -8.8 16.2
19:40 1028 30.36 857 25.31 12.6 54.8 22 -8.6 16.5
19:45 1028 30.36 857 25.31 12.5 54.5 23 -8 17.6
19:50 1028 30.36 857 25.31 12.5 54.5 23 -8.2 17.2
19:55 1028 30.36 857 25.31 12.4 54.2 23 -7.9 17.7
20:00 1028 30.36 857 25.31 12.2 54 24 -7.6 18.3
20:05 1028 30.36 857 25.31 12.1 53.7 25 -7.6 18.4
20:10 1028 30.36 858 25.34 12 53.5 26 -6.8 19.8
20:15 1028 30.36 858 25.34 11.2 52.2 32 -4.9 23.3
20:20 1028 30.36 858 25.34 10.1 50.2 35 -4.6 23.8
20:25 1028 30.36 858 25.34 9.6 49.2 37 -4.4 24.2
20:30 1028 30.36 858 25.34 9.1 48.4 40 -3.8 25.1
20:35 1029 30.39 858 25.34 8.6 47.5 42 -3.7 25.4
20:40 1029 30.39 858 25.34 8.1 46.6 43 -3.7 25.4
20:45 1029 30.39 858 25.34 7.8 46.1 43 -4.1 24.6
20:50 1029 30.39 858 25.34 7.8 46 42 -4.2 24.4
20:55 1029 30.39 858 25.34 7.7 45.8 43 -4.2 24.5
21:00 1029 30.39 858 25.34 7.5 45.5 44 -3.9 25
21:05 1029 30.39 858 25.34 7.3 45.1 45 -3.9 24.9
21:10 1029 30.39 858 25.34 7 44.7 45 -4.1 24.6
21:15 1029 30.39 858 25.34 6.9 44.4 45 -4.2 24.5
21:20 1029 30.39 858 25.34 6.7 44.1 46 -4.1 24.6
21:25 1029 30.39 858 25.34 6.5 43.8 46 -4.2 24.4
21:30 1029 30.39 858 25.34 6.4 43.5 47 -4.2 24.4
21:35 1029 30.39 858 25.34 6.3 43.4 46 -4.4 24
21:40 1029 30.39 858 25.34 6.3 43.4 46 -4.4 24
21:45 1029 30.39 858 25.34 6.3 43.3 45 -4.6 23.6
21:50 1029 30.39 858 25.34 6.4 43.5 44 -4.8 23.3
21:55 1029 30.39 858 25.34 6.5 43.7 44 -4.7 23.5
22:00 1029 30.39 858 25.34 6.4 43.6 45 -4.7 23.5
22:05 1029 30.39 858 25.34 6.2 43.1 46 -4.5 23.9
22:10 1029 30.39 858 25.34 6.1 43.1 45 -4.9 23.1
22:15 1029 30.39 858 25.34 6.3 43.3 43 -5.3 22.4
22:20 1029 30.39 858 25.34 6.6 43.9 42 -5.3 22.4
22:25 1029 30.39 858 25.34 6.6 44 43 -5.2 22.7
22:30 1029 30.39 858 25.34 6.6 43.9 43 -5.2 22.7
22:35 1029 30.39 858 25.34 6.4 43.4 43 -5.3 22.4
22:40 1029 30.39 858 25.34 6.3 43.3 43 -5.3 22.5
22:45 1029 30.39 858 25.34 6.3 43.3 43 -5.5 22.1
22:50 1029 30.39 858 25.34 6.4 43.5 43 -5.1 22.7
22:55 1029 30.39 858 25.34 6.1 43 45 -5.1 22.9
23:00 1029 30.39 858 25.34 5.8 42.5 46 -4.9 23.2
23:05 1029 30.39 858 25.34 5.5 41.9 47 -4.8 23.3
23:10 1029 30.39 858 25.34 5.6 42.1 45 -5.5 22.1
23:15 1029 30.39 858 25.34 6.2 43.1 43 -5.4 22.3
23:20 1029 30.39 858 25.34 6.1 43 45 -4.8 23.3
23:25 1029 30.39 858 25.34 5.7 42.3 47 -4.6 23.7
23:30 1029 30.39 858 25.34 5.4 41.8 48 -4.7 23.5
23:35 1029 30.39 858 25.34 5.4 41.7 47 -5 23
23:40 1029 30.39 858 25.34 5.8 42.4 45 -5.3 22.5
23:45 1029 30.39 858 25.34 6 42.7 45 -5 23
23:50 1029 30.39 858 25.34 6 42.7 44 -5.4 22.2
23:55 1029 30.39 858 25.34 6.1 43 44 -5.2 22.7
24:00 1029 30.39 858 25.34 5.9 42.6 46 -4.7 23.5